Time;durP1;ratioP1;P1;durP2;ratioP2;P2;SDS_P1;SDS_P2;PMS_P1;PMS_P2;Temp;Humidity;BMP_temperature;BMP_pressure;BME280_temperature;BME280_humidity;BME280_pressure;Samples;Min_cycle;Max_cycle;Signal;HPM_P1;HPM_P2
2022/06/20 00:00:27;;;;;;;7.80;3.35;;;;;;;;;;5061270;28;20360;-75
2022/06/20 00:02:54;;;;;;;6.28;3.50;;;;;;;;;;5054005;28;20379;-75
2022/06/20 00:05:22;;;;;;;9.35;4.10;;;;;;;;;;5062058;28;20462;-75
2022/06/20 00:07:48;;;;;;;7.82;3.63;;;;;;;;;;5062415;28;20422;-75
2022/06/20 00:10:16;;;;;;;7.90;3.15;;;;;;;;;;5050563;28;20112;-75
2022/06/20 00:12:42;;;;;;;11.52;4.55;;;;;;;;;;5052061;28;20104;-75
2022/06/20 00:15:08;;;;;;;8.13;2.75;;;;;;;;;;5058108;28;20037;-75
2022/06/20 00:17:35;;;;;;;13.93;3.33;;;;;;;;;;5057094;28;20028;-75
2022/06/20 00:20:01;;;;;;;8.70;3.67;;;;;;;;;;5054614;28;20475;-74
2022/06/20 00:22:28;;;;;;;6.60;4.18;;;;;;;;;;5075276;28;20457;-75
2022/06/20 00:24:54;;;;;;;6.57;3.08;;;;;;;;;;5059850;28;20036;-75
2022/06/20 00:27:20;;;;;;;8.85;3.90;;;;;;;;;;5060157;28;20514;-74
2022/06/20 00:29:47;;;;;;;7.18;4.18;;;;;;;;;;5055493;28;20024;-75
2022/06/20 00:32:13;;;;;;;7.88;3.50;;;;;;;;;;5059965;28;20029;-75
2022/06/20 00:34:39;;;;;;;7.38;3.28;;;;;;;;;;5065118;28;20025;-75
2022/06/20 00:37:06;;;;;;;7.53;3.20;;;;;;;;;;5060539;28;20024;-77
2022/06/20 00:39:32;;;;;;;10.50;3.75;;;;;;;;;;5066648;28;20024;-76
2022/06/20 00:42:00;;;;;;;9.88;3.20;;;;;;;;;;5060033;28;20036;-76
2022/06/20 00:44:32;;;;;;;14.98;4.05;;;;;;;;;;5062052;28;20016;-76
2022/06/20 00:47:02;;;;;;;7.65;3.13;;;;;;;;;;5061720;28;20028;-76
2022/06/20 00:49:34;;;;;;;11.68;3.97;;;;;;;;;;5064859;28;20024;-76
2022/06/20 00:52:08;;;;;;;9.73;4.28;;;;;;;;;;5058196;28;20028;-76
2022/06/20 00:54:47;;;;;;;10.45;3.42;;;;;;;;;;5061215;28;20142;-75
2022/06/20 00:57:20;;;;;;;9.27;3.40;;;;;;;;;;5048922;28;20028;-74
2022/06/20 00:59:48;;;;;;;10.05;3.55;;;;;;;;;;5060690;28;20024;-74
2022/06/20 01:02:19;;;;;;;7.35;4.22;;;;;;;;;;5056877;28;20032;-76
2022/06/20 01:04:56;;;;;;;8.85;3.83;;;;;;;;;;5065995;28;20017;-75
2022/06/20 01:07:24;;;;;;;7.22;3.50;;;;;;;;;;5065003;28;20021;-77
2022/06/20 01:09:54;;;;;;;7.57;4.00;;;;;;;;;;5058786;28;20031;-76
2022/06/20 01:12:21;;;;;;;11.90;3.30;;;;;;;;;;5063839;28;20034;-76
2022/06/20 01:14:47;;;;;;;10.25;4.60;;;;;;;;;;5056498;28;20036;-76
2022/06/20 01:17:13;;;;;;;10.15;3.47;;;;;;;;;;5054497;28;20027;-76
2022/06/20 01:19:58;;;;;;;10.88;3.67;;;;;;;;;;5067075;28;20052;-76
2022/06/20 01:22:38;;;;;;;6.90;3.63;;;;;;;;;;5063364;28;20064;-75
2022/06/20 01:25:04;;;;;;;7.65;2.97;;;;;;;;;;5051853;28;20140;-75
2022/06/20 01:27:37;;;;;;;9.68;3.78;;;;;;;;;;5065059;28;20032;-76
2022/06/20 01:30:03;;;;;;;9.65;3.45;;;;;;;;;;5058242;28;20036;-77
2022/06/20 01:32:30;;;;;;;4.90;3.97;;;;;;;;;;5055557;28;20406;-75
2022/06/20 01:34:58;;;;;;;13.80;3.42;;;;;;;;;;5064322;28;20020;-76
2022/06/20 01:37:25;;;;;;;14.25;4.05;;;;;;;;;;5051961;28;20029;-76
2022/06/20 01:39:53;;;;;;;8.80;3.40;;;;;;;;;;5056869;28;20485;-76
2022/06/20 01:42:20;;;;;;;8.85;3.60;;;;;;;;;;5056212;28;20448;-75
2022/06/20 01:44:54;;;;;;;5.43;3.25;;;;;;;;;;5062818;28;20141;-75
2022/06/20 01:47:21;;;;;;;6.25;3.30;;;;;;;;;;5057531;28;20125;-77
2022/06/20 01:49:49;;;;;;;8.75;3.75;;;;;;;;;;5073087;28;20107;-76
2022/06/20 01:52:19;;;;;;;8.65;4.18;;;;;;;;;;5063490;28;20031;-76
2022/06/20 01:54:47;;;;;;;8.07;3.47;;;;;;;;;;5061151;28;20082;-77
2022/06/20 01:57:13;;;;;;;9.73;4.03;;;;;;;;;;5066455;28;20071;-76
2022/06/20 01:59:43;;;;;;;5.78;3.70;;;;;;;;;;5064154;28;20134;-74
2022/06/20 02:02:09;;;;;;;9.68;3.75;;;;;;;;;;5056153;28;20104;-76
2022/06/20 02:04:37;;;;;;;9.02;3.33;;;;;;;;;;5061885;28;20150;-75
2022/06/20 02:07:05;;;;;;;6.57;3.47;;;;;;;;;;5065422;28;20028;-75
2022/06/20 02:09:31;;;;;;;8.40;3.63;;;;;;;;;;5063185;28;20378;-75
2022/06/20 02:11:59;;;;;;;11.40;4.10;;;;;;;;;;5057982;28;20028;-75
2022/06/20 02:14:35;;;;;;;10.02;4.80;;;;;;;;;;5053876;28;20039;-76
2022/06/20 02:17:03;;;;;;;7.43;3.47;;;;;;;;;;5057939;28;20484;-75
2022/06/20 02:19:32;;;;;;;7.63;3.33;;;;;;;;;;5054139;28;20045;-76
2022/06/20 02:22:02;;;;;;;9.77;4.13;;;;;;;;;;5055143;28;20033;-75
2022/06/20 02:24:32;;;;;;;7.55;3.92;;;;;;;;;;5055234;28;20025;-75
2022/06/20 02:27:01;;;;;;;5.47;3.67;;;;;;;;;;5062345;28;20017;-75
2022/06/20 02:29:29;;;;;;;7.75;3.55;;;;;;;;;;5057221;28;20016;-75
2022/06/20 02:31:57;;;;;;;10.85;4.10;;;;;;;;;;5058851;28;20025;-75
2022/06/20 02:34:24;;;;;;;10.90;3.22;;;;;;;;;;5062299;28;20115;-74
2022/06/20 02:36:50;;;;;;;6.55;3.17;;;;;;;;;;5058910;28;20427;-74
2022/06/20 02:39:18;;;;;;;12.02;3.65;;;;;;;;;;5064191;28;20107;-75
2022/06/20 02:41:45;;;;;;;6.47;3.15;;;;;;;;;;5058579;28;20025;-74
2022/06/20 02:44:15;;;;;;;8.88;3.58;;;;;;;;;;5057025;28;20114;-76
2022/06/20 02:46:42;;;;;;;11.25;4.00;;;;;;;;;;5062685;28;20063;-75
2022/06/20 02:49:09;;;;;;;9.90;4.13;;;;;;;;;;5061680;28;20050;-76
2022/06/20 02:51:40;;;;;;;7.18;3.75;;;;;;;;;;5060343;28;20025;-75
2022/06/20 02:54:07;;;;;;;7.55;3.58;;;;;;;;;;5063092;28;20127;-76
2022/06/20 02:56:37;;;;;;;11.10;4.30;;;;;;;;;;5063505;28;20029;-75
2022/06/20 02:59:05;;;;;;;7.65;4.18;;;;;;;;;;5055137;28;20020;-75
2022/06/20 03:01:47;;;;;;;9.20;3.92;;;;;;;;;;5062149;28;20029;-75
2022/06/20 03:04:13;;;;;;;4.45;2.90;;;;;;;;;;5059610;28;20016;-75
2022/06/20 03:06:43;;;;;;;6.32;4.10;;;;;;;;;;5068996;28;20145;-75
2022/06/20 03:09:12;;;;;;;9.93;3.35;;;;;;;;;;5060139;28;20020;-75
2022/06/20 03:11:39;;;;;;;10.75;4.43;;;;;;;;;;5054116;28;20021;-75
2022/06/20 03:14:07;;;;;;;7.25;3.40;;;;;;;;;;5053785;28;20071;-75
2022/06/20 03:16:33;;;;;;;11.25;4.28;;;;;;;;;;5057053;28;20028;-76
2022/06/20 03:19:01;;;;;;;7.47;3.28;;;;;;;;;;5057751;28;20414;-76
2022/06/20 03:21:32;;;;;;;4.70;3.13;;;;;;;;;;5062629;28;20029;-75
2022/06/20 03:23:58;;;;;;;7.65;4.10;;;;;;;;;;5053079;28;20507;-75
2022/06/20 03:26:25;;;;;;;9.90;4.10;;;;;;;;;;5065144;28;20013;-75
2022/06/20 03:28:52;;;;;;;6.75;3.42;;;;;;;;;;5061482;28;20044;-76
2022/06/20 03:31:19;;;;;;;9.35;3.75;;;;;;;;;;5075594;28;20033;-75
2022/06/20 03:33:45;;;;;;;10.20;4.47;;;;;;;;;;5055004;28;20028;-76
2022/06/20 03:36:19;;;;;;;9.30;3.90;;;;;;;;;;5056279;28;20017;-75
2022/06/20 03:38:47;;;;;;;7.80;3.65;;;;;;;;;;5059958;28;20052;-74
2022/06/20 03:41:14;;;;;;;8.85;3.92;;;;;;;;;;5073953;28;20032;-76
2022/06/20 03:43:41;;;;;;;8.32;3.75;;;;;;;;;;5054155;28;20036;-75
2022/06/20 03:46:15;;;;;;;8.05;3.75;;;;;;;;;;5056357;28;20025;-76
2022/06/20 03:48:44;;;;;;;7.97;4.03;;;;;;;;;;5075497;28;20025;-76
2022/06/20 03:51:16;;;;;;;8.10;3.90;;;;;;;;;;5060619;28;20032;-75
2022/06/20 03:53:45;;;;;;;8.02;3.50;;;;;;;;;;5054795;28;20097;-75
2022/06/20 03:56:27;;;;;;;8.10;3.28;;;;;;;;;;5053166;28;20546;-75
2022/06/20 03:58:59;;;;;;;6.03;2.90;;;;;;;;;;5079379;28;20136;-76
2022/06/20 04:01:45;;;;;;;10.60;3.67;;;;;;;;;;5065834;28;20032;-76
2022/06/20 04:04:14;;;;;;;5.13;3.00;;;;;;;;;;5058488;28;20103;-76
2022/06/20 04:06:44;;;;;;;9.77;3.63;;;;;;;;;;5065179;28;20515;-76
2022/06/20 04:12:07;;;;;;;10.77;3.58;;;;;;;;;;5054333;28;20035;-74
2022/06/20 04:14:48;;;;;;;11.52;3.90;;;;;;;;;;5060462;28;20025;-76
2022/06/20 04:20:28;;;;;;;7.15;3.72;;;;;;;;;;5055561;28;20063;-76
2022/06/20 04:22:55;;;;;;;9.30;4.23;;;;;;;;;;5056119;28;20025;-75
2022/06/20 04:25:21;;;;;;;5.40;3.60;;;;;;;;;;5057105;28;20084;-75
2022/06/20 04:27:51;;;;;;;10.55;3.40;;;;;;;;;;5064040;28;20386;-76
2022/06/20 04:30:25;;;;;;;10.40;3.45;;;;;;;;;;5063541;28;20031;-76
2022/06/20 04:32:55;;;;;;;7.78;3.60;;;;;;;;;;5054387;28;20020;-76
2022/06/20 04:35:23;;;;;;;9.25;3.65;;;;;;;;;;5062749;28;20386;-75
2022/06/20 04:37:53;;;;;;;8.10;3.50;;;;;;;;;;5062048;28;20013;-76
2022/06/20 04:40:25;;;;;;;9.27;3.72;;;;;;;;;;5058787;28;20032;-74
2022/06/20 04:42:54;;;;;;;8.63;4.35;;;;;;;;;;5058895;28;20021;-76
2022/06/20 04:45:27;;;;;;;8.63;4.18;;;;;;;;;;5064086;28;20059;-77
2022/06/20 04:47:56;;;;;;;8.82;3.95;;;;;;;;;;5064340;28;20027;-76
2022/06/20 04:50:24;;;;;;;6.65;3.88;;;;;;;;;;5059729;28;20274;-77
2022/06/20 04:52:51;;;;;;;6.18;3.53;;;;;;;;;;5061707;28;20025;-75
2022/06/20 04:55:18;;;;;;;10.30;4.07;;;;;;;;;;5059086;28;20020;-76
2022/06/20 04:57:45;;;;;;;7.00;3.30;;;;;;;;;;5062345;28;20100;-76
2022/06/20 05:00:15;;;;;;;7.40;4.07;;;;;;;;;;5057880;28;20023;-76
2022/06/20 05:02:41;;;;;;;7.15;4.43;;;;;;;;;;5060191;28;20025;-76
2022/06/20 05:05:13;;;;;;;5.15;3.22;;;;;;;;;;5058585;28;20024;-76
2022/06/20 05:07:41;;;;;;;7.18;3.40;;;;;;;;;;5063588;28;20028;-76
2022/06/20 05:10:07;;;;;;;10.70;4.40;;;;;;;;;;5058365;28;20033;-76
2022/06/20 05:12:54;;;;;;;8.07;3.47;;;;;;;;;;5069371;28;20107;-76
2022/06/20 05:15:50;;;;;;;6.22;3.53;;;;;;;;;;5056731;28;20089;-76
2022/06/20 05:18:24;;;;;;;6.30;3.47;;;;;;;;;;5047933;28;20107;-76
2022/06/20 05:20:53;;;;;;;6.93;3.72;;;;;;;;;;5062220;28;20526;-75
2022/06/20 05:23:40;;;;;;;8.13;4.10;;;;;;;;;;5061821;28;20485;-75
2022/06/20 05:26:08;;;;;;;9.95;4.43;;;;;;;;;;5063024;28;20041;-75
2022/06/20 05:28:36;;;;;;;10.48;3.70;;;;;;;;;;5063938;28;20088;-76
2022/06/20 05:31:04;;;;;;;11.35;5.15;;;;;;;;;;5054450;28;20067;-76
2022/06/20 05:33:35;;;;;;;9.52;4.10;;;;;;;;;;5056053;28;20028;-76
2022/06/20 05:36:04;;;;;;;9.30;4.05;;;;;;;;;;5058239;28;20099;-75
2022/06/20 05:38:35;;;;;;;6.97;3.85;;;;;;;;;;5058773;28;20029;-75
2022/06/20 05:41:04;;;;;;;8.75;3.67;;;;;;;;;;5060682;28;20122;-75
2022/06/20 05:43:31;;;;;;;11.93;3.53;;;;;;;;;;5052771;28;20029;-75
2022/06/20 05:46:01;;;;;;;5.65;3.58;;;;;;;;;;5058907;28;20568;-76
2022/06/20 05:48:47;;;;;;;8.32;3.63;;;;;;;;;;5063920;28;20035;-77
2022/06/20 05:51:14;;;;;;;10.63;4.03;;;;;;;;;;5076649;28;20029;-76
2022/06/20 05:53:46;;;;;;;7.45;3.60;;;;;;;;;;5055443;28;20491;-77
2022/06/20 05:56:21;;;;;;;7.80;2.97;;;;;;;;;;5064813;28;20111;-75
2022/06/20 05:58:48;;;;;;;7.10;3.45;;;;;;;;;;5051771;28;20121;-76
2022/06/20 06:01:17;;;;;;;9.88;3.88;;;;;;;;;;5056227;28;20057;-76
2022/06/20 06:04:00;;;;;;;8.90;3.35;;;;;;;;;;5068051;28;20024;-76
2022/06/20 06:06:46;;;;;;;7.57;3.53;;;;;;;;;;5052481;28;20025;-76
2022/06/20 06:09:15;;;;;;;14.75;5.85;;;;;;;;;;5056933;28;20055;-75
2022/06/20 06:11:46;;;;;;;8.07;3.67;;;;;;;;;;5057459;28;20107;-76
2022/06/20 06:14:12;;;;;;;10.25;3.78;;;;;;;;;;5060043;28;20025;-76
2022/06/20 06:16:47;;;;;;;8.18;3.28;;;;;;;;;;5059663;28;20029;-76
2022/06/20 06:19:27;;;;;;;9.65;4.13;;;;;;;;;;5059964;28;20060;-77
2022/06/20 06:21:54;;;;;;;5.63;3.30;;;;;;;;;;5061946;28;20131;-75
2022/06/20 06:24:22;;;;;;;6.30;3.05;;;;;;;;;;5062214;28;20032;-76
2022/06/20 06:26:48;;;;;;;10.23;3.50;;;;;;;;;;5064433;28;20016;-77
2022/06/20 06:29:19;;;;;;;7.97;3.78;;;;;;;;;;5061597;28;20106;-76
2022/06/20 06:31:49;;;;;;;13.18;3.75;;;;;;;;;;5059093;28;20036;-73
2022/06/20 06:34:22;;;;;;;10.27;3.38;;;;;;;;;;5060021;28;20040;-73
2022/06/20 06:36:57;;;;;;;10.77;3.40;;;;;;;;;;5065687;28;20036;-74
2022/06/20 06:39:31;;;;;;;9.43;4.50;;;;;;;;;;5058849;28;20040;-74
2022/06/20 06:41:58;;;;;;;8.65;4.20;;;;;;;;;;5052973;28;20032;-73
2022/06/20 06:44:30;;;;;;;7.05;3.88;;;;;;;;;;5056513;28;20016;-73
2022/06/20 06:46:57;;;;;;;9.20;3.95;;;;;;;;;;5053889;28;20021;-73
2022/06/20 06:49:23;;;;;;;5.72;3.08;;;;;;;;;;5055678;28;20013;-73
2022/06/20 06:51:59;;;;;;;8.60;3.63;;;;;;;;;;5054838;28;20025;-73
2022/06/20 06:54:25;;;;;;;9.70;4.28;;;;;;;;;;5062797;28;20028;-72
2022/06/20 06:57:00;;;;;;;6.97;3.30;;;;;;;;;;5059651;28;20024;-74
2022/06/20 06:59:38;;;;;;;7.90;3.63;;;;;;;;;;5057047;28;20539;-74
2022/06/20 07:02:09;;;;;;;10.13;3.47;;;;;;;;;;5055684;28;20073;-74
2022/06/20 07:04:41;;;;;;;9.38;4.65;;;;;;;;;;5061086;28;20486;-73
2022/06/20 07:07:29;;;;;;;10.88;3.10;;;;;;;;;;5067287;28;20052;-74
2022/06/20 07:09:56;;;;;;;11.50;3.67;;;;;;;;;;5062754;28;20048;-74
2022/06/20 07:12:28;;;;;;;8.35;3.25;;;;;;;;;;5060884;28;20020;-73
2022/06/20 07:15:07;;;;;;;9.70;4.38;;;;;;;;;;5067450;28;20363;-74
2022/06/20 07:17:33;;;;;;;9.63;3.10;;;;;;;;;;5062833;28;20463;-74
2022/06/20 07:20:00;;;;;;;7.95;4.32;;;;;;;;;;5056946;28;20521;-74
2022/06/20 07:22:26;;;;;;;10.43;3.75;;;;;;;;;;5062626;28;20098;-73
2022/06/20 07:24:53;;;;;;;14.48;4.38;;;;;;;;;;5063002;28;20031;-73
2022/06/20 07:27:28;;;;;;;8.77;3.20;;;;;;;;;;5056922;28;20085;-74
2022/06/20 07:29:54;;;;;;;7.95;3.67;;;;;;;;;;5052678;28;20104;-74
2022/06/20 07:32:41;;;;;;;8.90;3.10;;;;;;;;;;5053512;28;20425;-72
2022/06/20 07:35:10;;;;;;;9.57;3.40;;;;;;;;;;5054024;28;20114;-72
2022/06/20 07:37:47;;;;;;;11.63;3.50;;;;;;;;;;5056804;28;20028;-73
2022/06/20 07:40:32;;;;;;;7.45;4.00;;;;;;;;;;5063250;28;20032;-73
2022/06/20 07:43:05;;;;;;;10.55;3.88;;;;;;;;;;5056126;28;20543;-73
2022/06/20 07:45:37;;;;;;;8.93;4.03;;;;;;;;;;5064264;28;20456;-74
2022/06/20 07:48:07;;;;;;;7.88;3.45;;;;;;;;;;5064212;28;20203;-71
2022/06/20 07:50:58;;;;;;;7.10;3.20;;;;;;;;;;5057770;28;20479;-74
2022/06/20 07:53:30;;;;;;;6.93;3.08;;;;;;;;;;5050330;28;20056;-72
2022/06/20 07:56:04;;;;;;;7.88;3.10;;;;;;;;;;5055490;28;20370;-73
2022/06/20 07:58:31;;;;;;;8.18;3.63;;;;;;;;;;5060121;28;20574;-75
2022/06/20 08:00:59;;;;;;;10.27;3.58;;;;;;;;;;5065231;28;20471;-74
2022/06/20 08:03:29;;;;;;;11.10;3.08;;;;;;;;;;5061853;28;20070;-75
2022/06/20 08:05:58;;;;;;;6.97;3.17;;;;;;;;;;5068777;28;20246;-73
2022/06/20 08:08:33;;;;;;;10.63;3.22;;;;;;;;;;5062332;28;20024;-74
2022/06/20 08:10:59;;;;;;;6.00;3.45;;;;;;;;;;5052652;28;20020;-73
2022/06/20 08:13:29;;;;;;;8.85;3.63;;;;;;;;;;5058857;28;20031;-73
2022/06/20 08:15:59;;;;;;;11.85;3.30;;;;;;;;;;5061374;28;20040;-73
2022/06/20 08:18:26;;;;;;;8.07;3.33;;;;;;;;;;5057595;28;20044;-72
2022/06/20 08:20:58;;;;;;;11.70;3.85;;;;;;;;;;5057428;28;20536;-74
2022/06/20 08:23:37;;;;;;;7.57;3.20;;;;;;;;;;5051902;28;20017;-73
2022/06/20 08:26:06;;;;;;;8.13;3.55;;;;;;;;;;5067452;28;20024;-74
2022/06/20 08:29:02;;;;;;;8.93;3.47;;;;;;;;;;5051047;28;20036;-74
2022/06/20 08:31:28;;;;;;;8.48;2.97;;;;;;;;;;5055754;28;20402;-73
2022/06/20 08:34:04;;;;;;;8.32;3.17;;;;;;;;;;5055971;28;20029;-72
2022/06/20 08:36:33;;;;;;;8.48;3.20;;;;;;;;;;5055133;28;20021;-73
2022/06/20 08:39:14;;;;;;;7.25;3.03;;;;;;;;;;5059160;28;20035;-73
2022/06/20 08:42:03;;;;;;;8.18;3.30;;;;;;;;;;5054043;28;20025;-74
2022/06/20 08:44:37;;;;;;;5.28;2.80;;;;;;;;;;5050084;28;20031;-73
2022/06/20 08:47:22;;;;;;;9.30;2.80;;;;;;;;;;5054923;28;20027;-74
2022/06/20 08:50:03;;;;;;;5.13;2.70;;;;;;;;;;5060008;28;20092;-74
2022/06/20 08:52:38;;;;;;;7.93;3.20;;;;;;;;;;5066263;28;20109;-76
2022/06/20 08:55:23;;;;;;;7.78;3.10;;;;;;;;;;5072797;28;20082;-74
2022/06/20 08:58:02;;;;;;;8.93;2.75;;;;;;;;;;5066261;28;20028;-74
2022/06/20 09:00:32;;;;;;;7.53;3.00;;;;;;;;;;5048532;28;20017;-74
2022/06/20 09:02:58;;;;;;;5.25;3.35;;;;;;;;;;5052962;28;20021;-74
2022/06/20 09:05:39;;;;;;;10.20;3.13;;;;;;;;;;5054719;28;20020;-74
2022/06/20 09:08:05;;;;;;;5.05;2.53;;;;;;;;;;5063567;28;20028;-74
2022/06/20 09:10:43;;;;;;;8.77;3.67;;;;;;;;;;5064158;28;20078;-74
2022/06/20 09:13:26;;;;;;;7.55;2.85;;;;;;;;;;5059184;28;20021;-73
2022/06/20 09:16:13;;;;;;;6.93;3.40;;;;;;;;;;5054191;28;20554;-73
2022/06/20 09:18:39;;;;;;;7.05;3.00;;;;;;;;;;5056395;28;20442;-74
2022/06/20 09:21:23;;;;;;;10.57;3.42;;;;;;;;;;5063521;28;20029;-74
2022/06/20 09:23:49;;;;;;;9.63;2.72;;;;;;;;;;5063950;28;20032;-74
2022/06/20 09:26:28;;;;;;;7.95;2.58;;;;;;;;;;5051938;28;20588;-74
2022/06/20 09:29:02;;;;;;;4.25;2.50;;;;;;;;;;5055430;28;20021;-74
2022/06/20 09:31:37;;;;;;;7.30;2.88;;;;;;;;;;5052864;28;20040;-73
2022/06/20 09:34:06;;;;;;;10.43;3.00;;;;;;;;;;5050129;28;20032;-73
2022/06/20 09:36:58;;;;;;;9.80;3.40;;;;;;;;;;5052067;28;20036;-73
2022/06/20 09:39:37;;;;;;;7.53;2.90;;;;;;;;;;5059976;28;20025;-76
2022/06/20 09:42:12;;;;;;;4.53;2.67;;;;;;;;;;5050654;28;20060;-74
2022/06/20 09:44:57;;;;;;;7.40;3.10;;;;;;;;;;5060095;28;20815;-74
2022/06/20 09:47:42;;;;;;;7.97;3.30;;;;;;;;;;5068221;28;20043;-75
2022/06/20 09:50:20;;;;;;;5.88;3.03;;;;;;;;;;5061985;28;20028;-73
2022/06/20 09:52:46;;;;;;;5.85;3.05;;;;;;;;;;5054069;28;20025;-73
2022/06/20 09:55:31;;;;;;;9.75;3.42;;;;;;;;;;5058490;28;20063;-73
2022/06/20 09:58:13;;;;;;;6.55;2.70;;;;;;;;;;5057648;28;20032;-73
2022/06/20 10:00:45;;;;;;;6.75;2.60;;;;;;;;;;5055652;28;20116;-73
2022/06/20 10:03:17;;;;;;;7.18;2.95;;;;;;;;;;5058372;28;20025;-73
2022/06/20 10:05:55;;;;;;;3.90;2.55;;;;;;;;;;5063587;28;20029;-74
2022/06/20 10:08:30;;;;;;;7.10;3.55;;;;;;;;;;5061846;28;20530;-74
2022/06/20 10:11:01;;;;;;;4.80;2.58;;;;;;;;;;5056466;28;20108;-74
2022/06/20 10:13:33;;;;;;;6.07;2.72;;;;;;;;;;5058481;28;20021;-74
2022/06/20 10:16:03;;;;;;;4.90;2.60;;;;;;;;;;5053911;28;20032;-74
2022/06/20 10:18:38;;;;;;;5.57;3.40;;;;;;;;;;5058764;28;20041;-74
2022/06/20 10:21:12;;;;;;;5.90;2.63;;;;;;;;;;5057496;28;20116;-73
2022/06/20 10:23:57;;;;;;;7.93;2.90;;;;;;;;;;5061475;28;20563;-74
2022/06/20 10:26:43;;;;;;;5.30;3.00;;;;;;;;;;5064575;28;20554;-73
2022/06/20 10:29:22;;;;;;;6.85;2.70;;;;;;;;;;5058499;28;20091;-73
2022/06/20 10:31:51;;;;;;;5.45;3.03;;;;;;;;;;5057040;28;20024;-73
2022/06/20 10:34:17;;;;;;;4.43;2.58;;;;;;;;;;5075338;28;20498;-74
2022/06/20 10:36:43;;;;;;;4.65;2.72;;;;;;;;;;5059738;28;20024;-74
2022/06/20 10:39:22;;;;;;;6.53;3.20;;;;;;;;;;5061625;28;20064;-74
2022/06/20 10:42:14;;;;;;;10.32;3.17;;;;;;;;;;5057325;28;20024;-73
2022/06/20 10:44:58;;;;;;;6.38;3.10;;;;;;;;;;5047092;28;20077;-74
2022/06/20 10:47:43;;;;;;;6.28;2.85;;;;;;;;;;5053952;28;20036;-74
2022/06/20 10:50:09;;;;;;;6.43;2.60;;;;;;;;;;5060327;28;20159;-74
2022/06/20 10:52:47;;;;;;;8.18;3.70;;;;;;;;;;5058896;28;20025;-74
2022/06/20 10:55:23;;;;;;;7.35;3.50;;;;;;;;;;5056786;28;20039;-74
2022/06/20 10:57:49;;;;;;;5.95;3.20;;;;;;;;;;5053157;28;20036;-74
2022/06/20 11:00:17;;;;;;;6.68;2.60;;;;;;;;;;5078988;28;20020;-74
2022/06/20 11:02:49;;;;;;;7.18;2.85;;;;;;;;;;5061935;28;20067;-74
2022/06/20 11:05:27;;;;;;;3.83;2.10;;;;;;;;;;5062247;28;20029;-75
2022/06/20 11:07:59;;;;;;;8.05;3.10;;;;;;;;;;5061362;28;20456;-75
2022/06/20 11:10:37;;;;;;;6.20;2.58;;;;;;;;;;5062295;28;20012;-74
2022/06/20 11:13:16;;;;;;;5.45;2.40;;;;;;;;;;5061073;28;20024;-73
2022/06/20 11:16:02;;;;;;;7.30;3.05;;;;;;;;;;5063081;28;20025;-72
2022/06/20 11:18:48;;;;;;;5.65;2.75;;;;;;;;;;5055418;28;20040;-74
2022/06/20 11:21:27;;;;;;;4.70;2.53;;;;;;;;;;5062303;28;20526;-72
2022/06/20 11:24:11;;;;;;;4.70;2.38;;;;;;;;;;5056096;28;20480;-74
2022/06/20 11:27:00;;;;;;;5.68;2.40;;;;;;;;;;5060656;28;20505;-73
2022/06/20 11:29:33;;;;;;;8.32;3.05;;;;;;;;;;5057744;28;20028;-74
2022/06/20 11:32:05;;;;;;;8.65;3.15;;;;;;;;;;5061667;28;20031;-74
2022/06/20 11:34:40;;;;;;;8.75;2.92;;;;;;;;;;5063984;28;20040;-75
2022/06/20 11:37:15;;;;;;;5.00;2.42;;;;;;;;;;5056684;28;20103;-73
2022/06/20 11:39:41;;;;;;;;;;;;;;;;;;5065861;28;20029;-72
2022/06/20 11:42:11;;;;;;;5.03;2.90;;;;;;;;;;5064447;28;19998;-73
2022/06/20 11:45:00;;;;;;;5.30;2.55;;;;;;;;;;5054458;28;20368;-74
2022/06/20 11:47:26;;;;;;;4.93;2.35;;;;;;;;;;5052464;28;20037;-75
2022/06/20 11:50:12;;;;;;;5.80;2.70;;;;;;;;;;5067252;28;20020;-74
2022/06/20 11:52:45;;;;;;;4.65;2.30;;;;;;;;;;5054390;28;20028;-75
2022/06/20 11:55:22;;;;;;;6.15;2.25;;;;;;;;;;5055151;28;20453;-75
2022/06/20 11:57:51;;;;;;;4.15;2.22;;;;;;;;;;5053134;28;20131;-74
2022/06/20 12:00:20;;;;;;;4.90;2.30;;;;;;;;;;5054348;28;20189;-75
2022/06/20 12:03:04;;;;;;;4.63;2.63;;;;;;;;;;5050496;28;20021;-74
2022/06/20 12:05:33;;;;;;;3.57;2.10;;;;;;;;;;5062838;28;20024;-75
2022/06/20 12:08:09;;;;;;;7.60;2.55;;;;;;;;;;5060050;28;20445;-76
2022/06/20 12:10:55;;;;;;;4.40;2.35;;;;;;;;;;5062571;28;20035;-74
2022/06/20 12:13:29;;;;;;;3.60;2.30;;;;;;;;;;5057361;28;20025;-75
2022/06/20 12:16:34;;;;;;;4.28;2.30;;;;;;;;;;5069969;28;20021;-75
2022/06/20 12:24:40;;;;;;;6.00;2.20;;;;;;;;;;5020340;28;20069;-75
2022/06/20 12:27:11;;;;;;;2.70;1.88;;;;;;;;;;5015182;28;20099;-75
2022/06/20 12:29:37;;;;;;;6.15;2.35;;;;;;;;;;5016342;28;20028;-75
2022/06/20 12:32:05;;;;;;;6.20;2.28;;;;;;;;;;5022299;28;20032;-75
2022/06/20 12:34:31;;;;;;;5.72;2.33;;;;;;;;;;5018777;28;20026;-75
2022/06/20 12:36:58;;;;;;;5.80;2.20;;;;;;;;;;5013472;28;20032;-75
2022/06/20 12:39:26;;;;;;;5.18;2.15;;;;;;;;;;5023531;28;20395;-75
2022/06/20 12:41:57;;;;;;;7.40;3.45;;;;;;;;;;5026865;28;20036;-75
2022/06/20 12:44:31;;;;;;;5.90;2.38;;;;;;;;;;5021050;28;20026;-74
2022/06/20 12:46:57;;;;;;;8.45;2.85;;;;;;;;;;5010213;28;20022;-74
2022/06/20 12:49:36;;;;;;;6.63;2.72;;;;;;;;;;5018810;28;20033;-75
2022/06/20 12:52:02;;;;;;;6.40;2.25;;;;;;;;;;5021524;28;20095;-73
2022/06/20 12:54:28;;;;;;;5.15;2.35;;;;;;;;;;5013653;28;20415;-75
2022/06/20 12:57:26;;;;;;;9.60;2.67;;;;;;;;;;5023509;28;20044;-75
2022/06/20 13:00:02;;;;;;;4.13;2.58;;;;;;;;;;5020621;28;20511;-76
2022/06/20 13:02:43;;;;;;;4.80;2.20;;;;;;;;;;5018967;28;20088;-75
2022/06/20 13:05:24;;;;;;;6.03;2.78;;;;;;;;;;5016406;28;20022;-76
2022/06/20 13:08:02;;;;;;;5.47;2.88;;;;;;;;;;5015162;28;20034;-75
2022/06/20 13:10:47;;;;;;;2.80;1.90;;;;;;;;;;5017107;28;20100;-75
2022/06/20 13:13:16;;;;;;;8.93;2.50;;;;;;;;;;5014840;28;20438;-75
2022/06/20 13:16:02;;;;;;;5.43;2.38;;;;;;;;;;5015567;28;20117;-74
2022/06/20 13:18:42;;;;;;;4.78;2.30;;;;;;;;;;5036895;28;20044;-75
2022/06/20 13:21:35;;;;;;;2.80;2.17;;;;;;;;;;5053432;28;20112;-75
2022/06/20 13:24:23;;;;;;;4.88;2.05;;;;;;;;;;5051186;28;20037;-75
2022/06/20 13:26:52;;;;;;;5.75;2.55;;;;;;;;;;5055310;28;20025;-75
2022/06/20 13:29:24;;;;;;;6.53;2.10;;;;;;;;;;5053490;28;20124;-75
2022/06/20 13:31:52;;;;;;;5.43;2.30;;;;;;;;;;5056821;28;20047;-75
2022/06/20 13:34:21;;;;;;;4.43;2.58;;;;;;;;;;5055140;28;20043;-75
2022/06/20 13:36:59;;;;;;;4.70;2.40;;;;;;;;;;5051447;28;20479;-74
2022/06/20 13:39:38;;;;;;;6.13;2.10;;;;;;;;;;5061417;28;20561;-74
2022/06/20 13:42:18;;;;;;;3.72;2.15;;;;;;;;;;5064267;28;20031;-75
2022/06/20 13:44:48;;;;;;;3.22;1.70;;;;;;;;;;5057075;28;20059;-76
2022/06/20 13:47:17;;;;;;;4.00;1.95;;;;;;;;;;5065673;28;20039;-75
2022/06/20 13:49:58;;;;;;;3.30;1.70;;;;;;;;;;5055233;28;20033;-75
2022/06/20 13:52:29;;;;;;;3.60;1.90;;;;;;;;;;5066683;28;20501;-74
2022/06/20 13:55:15;;;;;;;3.63;1.90;;;;;;;;;;5057591;28;20422;-76
2022/06/20 13:57:44;;;;;;;4.45;2.10;;;;;;;;;;5062536;28;20029;-75
2022/06/20 14:00:16;;;;;;;3.90;1.90;;;;;;;;;;5068282;28;20063;-75
2022/06/20 14:02:44;;;;;;;5.55;2.00;;;;;;;;;;5061654;28;20068;-76
2022/06/20 14:05:16;;;;;;;3.88;1.98;;;;;;;;;;5057049;28;20067;-75
2022/06/20 14:07:43;;;;;;;5.07;2.33;;;;;;;;;;5064181;28;20032;-75
2022/06/20 14:10:20;;;;;;;3.95;1.90;;;;;;;;;;5059229;28;20089;-75
2022/06/20 14:12:49;;;;;;;5.00;2.28;;;;;;;;;;5059323;28;20040;-75
2022/06/20 14:15:15;;;;;;;4.43;1.80;;;;;;;;;;5054476;28;20048;-75
2022/06/20 14:17:49;;;;;;;3.97;2.05;;;;;;;;;;5062374;28;20079;-76
2022/06/20 14:20:25;;;;;;;5.20;1.77;;;;;;;;;;5056488;28;20036;-75
2022/06/20 14:22:52;;;;;;;4.97;1.80;;;;;;;;;;5057129;28;20090;-75
2022/06/20 14:25:38;;;;;;;3.75;2.05;;;;;;;;;;5055429;28;20031;-75
2022/06/20 14:28:05;;;;;;;2.53;1.80;;;;;;;;;;5070062;28;20024;-75
2022/06/20 14:30:34;;;;;;;3.20;1.80;;;;;;;;;;5058925;28;20035;-76
2022/06/20 14:33:20;;;;;;;3.25;1.60;;;;;;;;;;5056851;28;20055;-75
2022/06/20 14:35:46;;;;;;;8.88;2.95;;;;;;;;;;5060196;28;20036;-75
2022/06/20 14:38:21;;;;;;;4.80;1.77;;;;;;;;;;5061958;28;20028;-76
2022/06/20 14:43:56;;;;;;;3.05;1.60;;;;;;;;;;5056646;28;20340;-75
2022/06/20 14:46:41;;;;;;;4.10;1.65;;;;;;;;;;5055793;28;20016;-76
2022/06/20 14:49:17;;;;;;;2.80;1.70;;;;;;;;;;5061047;28;20033;-76
2022/06/20 14:51:46;;;;;;;5.10;2.20;;;;;;;;;;5064899;28;20025;-76
2022/06/20 14:54:25;;;;;;;4.05;1.80;;;;;;;;;;5065323;28;20466;-75
2022/06/20 14:56:55;;;;;;;5.43;1.90;;;;;;;;;;5062907;28;20107;-76
2022/06/20 14:59:21;;;;;;;4.93;2.00;;;;;;;;;;5059461;28;20462;-75
2022/06/20 15:01:49;;;;;;;3.60;2.22;;;;;;;;;;5052655;28;20025;-76
2022/06/20 15:04:19;;;;;;;3.17;1.77;;;;;;;;;;5056392;28;20057;-76
2022/06/20 15:06:49;;;;;;;2.25;1.70;;;;;;;;;;5053431;28;20083;-76
2022/06/20 15:09:18;;;;;;;3.95;1.73;;;;;;;;;;5055812;28;20032;-76
2022/06/20 15:11:51;;;;;;;5.40;1.60;;;;;;;;;;5054196;28;20013;-75
2022/06/20 15:14:17;;;;;;;;;;;;;;;;;;5060160;28;20028;-75
2022/06/20 15:17:07;;;;;;;4.35;1.70;;;;;;;;;;5058584;28;19912;-74
2022/06/20 15:19:39;;;;;;;3.55;2.03;;;;;;;;;;5055348;28;20049;-76
2022/06/20 15:22:14;;;;;;;4.35;1.77;;;;;;;;;;5058689;28;20029;-75
2022/06/20 15:24:45;;;;;;;3.97;1.70;;;;;;;;;;5057491;28;20052;-75
2022/06/20 15:27:17;;;;;;;2.25;1.60;;;;;;;;;;5057564;28;20021;-75